Annette Island Airport Annette US
ICAO: PANT
IATA:
Category: Medium
Scheduled Services:

Elevation: 119 ft
TransAlt. 18000 ft.

Airport Communications:
ASOS:135.75
CTAF:122.9
KETCHIKAN RDO:122.4

PANT Zoom In..

If you have problems with the map follow the link
https://www.worldairports.se/pages/airport.php?
ICAO=PANT

Runways:

(A) RW 02 length 5709 ft width 150 ft
---- / hdg 20

(B) RW 12 length 7493 ft width 150 ft
---- / hdg 124

(C) RW 20 length 5709 ft width 150 ft
---- / hdg 200

(D) RW 30 length 7493 ft width 150 ft
---- / hdg 304

Location; PANT
Day. 01 / Time. 12.53 Zulu
* Altimeter: 30.01
* Temperature: 12° c. 53.6°f.
* Wind from: 140° Speed 10 kn.
Dewpoint: 05° c.
Visibility: 10 Statute Miles.
Clouds: Overcast 5500 ft.

PANT 011253Z AUTO 14010KT 10SM OVC055 12/05 A3001 RMK SLP162 T01170050 TSNO VIA AUTODIAL


Wind From 140°
Speed 10 kn.

 
 
jpsmedia worldairports.se 2019   terms of use